createdAt,value
2016-05-15T00:00:18.544Z,8.87
2016-05-15T00:01:18.812Z,8.79
2016-05-15T00:02:18.471Z,8.81
2016-05-15T00:03:18.426Z,8.83
2016-05-15T00:04:18.242Z,8.81
2016-05-15T00:05:18.214Z,8.76
2016-05-15T00:06:18.326Z,8.76
2016-05-15T00:07:18.657Z,8.74
2016-05-15T00:08:18.362Z,8.74
2016-05-15T00:09:18.223Z,8.81
2016-05-15T00:10:18.023Z,8.73
2016-05-15T00:11:18.152Z,8.63
2016-05-15T00:12:18.138Z,8.79
2016-05-15T00:13:17.923Z,8.68
2016-05-15T00:14:18.050Z,8.71
2016-05-15T00:15:18.006Z,8.79
2016-05-15T00:16:17.962Z,8.73
2016-05-15T00:17:17.776Z,8.79
2016-05-15T00:18:17.904Z,8.76
2016-05-15T00:19:17.907Z,8.66
2016-05-15T00:20:17.956Z,8.73
2016-05-15T00:21:17.866Z,8.73
2016-05-15T00:22:17.759Z,8.71
2016-05-15T00:23:17.714Z,8.74
2016-05-15T00:24:17.687Z,8.76
2016-05-15T00:25:17.502Z,8.71
2016-05-15T00:26:17.458Z,8.73
2016-05-15T00:27:17.585Z,8.73
2016-05-15T00:28:17.541Z,8.74
2016-05-15T00:29:17.512Z,8.74
2016-05-15T00:30:17.483Z,8.81
2016-05-15T00:31:17.439Z,8.77
2016-05-15T00:32:17.396Z,8.68
2016-05-15T00:33:17.367Z,8.79
2016-05-15T00:34:17.744Z,8.74
2016-05-15T00:35:17.294Z,8.77
2016-05-15T00:36:17.265Z,8.87
2016-05-15T00:37:17.237Z,8.7
2016-05-15T00:38:17.037Z,8.7
2016-05-15T00:39:17.164Z,8.77
2016-05-15T00:40:16.963Z,8.74
2016-05-15T00:41:17.076Z,8.74
2016-05-15T00:42:16.890Z,8.71
2016-05-15T00:43:17.003Z,8.74
2016-05-15T00:44:16.974Z,8.76
2016-05-15T00:45:16.946Z,8.74
2016-05-15T00:46:16.917Z,8.74
2016-05-15T00:47:16.873Z,8.8
2016-05-15T00:48:16.845Z,8.71
2016-05-15T00:49:16.800Z,8.77
2016-05-15T00:50:16.773Z,8.76
2016-05-15T00:51:16.712Z,8.7
2016-05-15T00:52:16.684Z,8.8
2016-05-15T00:53:16.655Z,8.71
2016-05-15T00:54:16.626Z,8.8
2016-05-15T00:55:16.582Z,8.63
2016-05-15T00:56:16.538Z,8.8
2016-05-15T00:57:16.525Z,8.76
2016-05-15T00:58:16.481Z,8.71
2016-05-15T00:59:16.436Z,8.73
2016-05-15T01:00:16.408Z,8.76
2016-05-15T01:01:16.380Z,8.7
2016-05-15T01:02:16.366Z,8.66
2016-05-15T01:04:16.466Z,8.68
2016-05-15T01:05:16.235Z,8.66
2016-05-15T01:06:16.190Z,8.68
2016-05-15T01:07:16.161Z,8.63
2016-05-15T01:08:16.133Z,8.74
2016-05-15T01:09:16.088Z,8.65
2016-05-15T01:10:16.060Z,8.74
2016-05-15T01:11:16.032Z,8.63
2016-05-15T01:12:15.988Z,8.56
2016-05-15T01:13:15.959Z,8.65
2016-05-15T01:14:15.930Z,8.66
2016-05-15T01:15:15.917Z,8.62
2016-05-15T01:16:15.904Z,8.62
2016-05-15T01:17:15.813Z,8.55
2016-05-15T01:18:15.784Z,8.63
2016-05-15T01:19:16.615Z,8.62
2016-05-15T01:20:15.696Z,8.65
2016-05-15T01:21:15.667Z,8.63
2016-05-15T01:22:15.656Z,8.62
2016-05-15T01:23:15.595Z,8.61
2016-05-15T01:24:15.411Z,8.58
2016-05-15T01:25:15.381Z,8.56
2016-05-15T01:26:15.494Z,8.52
2016-05-15T01:27:15.465Z,8.52
2016-05-15T01:28:15.421Z,8.5
2016-05-15T01:29:15.377Z,8.5
2016-05-15T01:30:15.348Z,8.5
2016-05-15T01:31:15.335Z,8.52
2016-05-15T01:32:15.291Z,8.53
2016-05-15T01:33:15.231Z,8.45
2016-05-15T01:34:15.328Z,8.43
2016-05-15T01:35:15.018Z,8.53
2016-05-15T01:36:15.146Z,8.48
2016-05-15T01:37:15.102Z,8.45
2016-05-15T01:38:15.057Z,8.45
2016-05-15T01:39:15.013Z,8.43
2016-05-15T01:40:15.000Z,8.58
2016-05-15T01:41:14.956Z,8.44
2016-05-15T01:42:14.927Z,8.4
2016-05-15T01:43:14.882Z,8.44
2016-05-15T01:44:14.854Z,8.44
2016-05-15T01:45:14.810Z,8.4
2016-05-15T01:46:14.625Z,8.45
2016-05-15T01:47:14.753Z,8.45
2016-05-15T01:48:14.709Z,8.41
2016-05-15T01:49:14.524Z,8.44
2016-05-15T01:50:14.637Z,8.44
2016-05-15T01:51:14.592Z,8.4
2016-05-15T01:52:14.407Z,8.41
2016-05-15T01:53:14.519Z,8.4
2016-05-15T01:54:14.492Z,8.43
2016-05-15T01:55:14.306Z,8.45
2016-05-15T01:56:14.434Z,8.38
2016-05-15T01:57:14.389Z,8.45
2016-05-15T01:58:14.189Z,8.38
2016-05-15T01:59:14.317Z,8.45
2016-05-15T02:00:14.272Z,8.41
2016-05-15T02:01:14.244Z,8.41
2016-05-15T02:02:14.216Z,8.41
2016-05-15T02:03:14.187Z,8.48
2016-05-15T02:04:14.143Z,8.41
2016-05-15T02:05:14.114Z,8.48
2016-05-15T02:06:14.069Z,8.52
2016-05-15T02:07:14.026Z,8.48
2016-05-15T02:08:13.997Z,8.52
2016-05-15T02:09:13.968Z,8.44
2016-05-15T02:10:13.925Z,8.43
2016-05-15T02:11:13.880Z,8.45
2016-05-15T02:12:13.868Z,8.52
2016-05-15T02:13:13.838Z,8.37
2016-05-15T02:14:13.780Z,8.41
2016-05-15T02:15:13.579Z,8.43
2016-05-15T02:16:13.706Z,8.38
2016-05-15T02:17:13.679Z,8.45
2016-05-15T02:18:13.649Z,8.47
2016-05-15T02:19:13.604Z,8.41
2016-05-15T02:20:13.562Z,8.44
2016-05-15T02:21:13.532Z,8.45
2016-05-15T02:22:13.488Z,8.43
2016-05-15T02:23:13.459Z,8.43
2016-05-15T02:24:13.415Z,8.43
2016-05-15T02:25:13.418Z,8.34
2016-05-15T02:26:13.342Z,8.47
2016-05-15T02:27:13.314Z,8.45
2016-05-15T02:28:13.129Z,8.43
2016-05-15T02:29:13.242Z,8.36
2016-05-15T02:30:13.213Z,8.3
2016-05-15T02:31:13.169Z,8.34
2016-05-15T02:32:13.139Z,8.34
2016-05-15T02:33:13.112Z,8.29
2016-05-15T02:34:12.911Z,8.36
2016-05-15T02:35:13.038Z,8.36
2016-05-15T02:36:12.994Z,8.29
2016-05-15T02:37:12.966Z,8.33
2016-05-15T02:38:12.922Z,8.22
2016-05-15T02:39:12.877Z,8.28
2016-05-15T02:40:12.849Z,8.29
2016-05-15T02:41:12.821Z,8.29
2016-05-15T02:42:12.791Z,8.22
2016-05-15T02:43:12.763Z,8.19
2016-05-15T02:44:12.704Z,8.19
2016-05-15T02:45:12.519Z,8.22
2016-05-15T02:46:12.631Z,8.2
2016-05-15T02:47:12.602Z,8.16
2016-05-15T02:48:12.557Z,8.2
2016-05-15T02:49:12.654Z,8.2
2016-05-15T02:50:12.345Z,8.19
2016-05-15T02:51:12.456Z,8.19
2016-05-15T02:52:12.429Z,8.2
2016-05-15T02:53:12.400Z,8.19
2016-05-15T02:54:12.339Z,8.19
2016-05-15T02:55:12.311Z,8.23
2016-05-15T02:56:12.283Z,8.23
2016-05-15T02:57:12.239Z,8.2
2016-05-15T02:58:12.225Z,8.23
2016-05-15T02:59:12.167Z,8.22
2016-05-15T03:00:12.137Z,8.12
2016-05-15T03:01:12.092Z,8.18
2016-05-15T03:02:12.064Z,8.18
2016-05-15T03:03:12.036Z,8.16
2016-05-15T03:04:11.835Z,8.15
2016-05-15T03:05:11.963Z,8.2
2016-05-15T03:06:11.919Z,8.16
2016-05-15T03:07:11.875Z,8.16
2016-05-15T03:08:11.846Z,8.15
2016-05-15T03:09:11.661Z,8.16
2016-05-15T03:10:11.774Z,8.16
2016-05-15T03:11:11.744Z,8.12
2016-05-15T03:12:11.701Z,8.04
2016-05-15T03:13:11.672Z,8.1
2016-05-15T03:14:11.628Z,8.18
2016-05-15T03:15:11.615Z,8.12
2016-05-15T03:16:11.555Z,8.05
2016-05-15T03:17:11.527Z,8.07
2016-05-15T03:18:11.326Z,8.12
2016-05-15T03:19:11.470Z,8.02
2016-05-15T03:20:11.409Z,8.01
2016-05-15T03:21:11.241Z,8.05
2016-05-15T03:22:11.353Z,8.05
2016-05-15T03:23:11.308Z,8
2016-05-15T03:24:11.390Z,8.04
2016-05-15T03:25:11.251Z,7.97
2016-05-15T03:26:11.191Z,8
2016-05-15T03:27:11.163Z,7.95
2016-05-15T03:28:10.978Z,7.98
2016-05-15T03:29:11.090Z,7.92
2016-05-15T03:30:11.061Z,7.97
2016-05-15T03:31:11.017Z,7.97
2016-05-15T03:32:11.005Z,7.98
2016-05-15T03:33:10.960Z,7.97
2016-05-15T03:34:10.916Z,7.97
2016-05-15T03:35:10.888Z,7.98
2016-05-15T03:36:10.844Z,7.98
2016-05-15T03:37:10.799Z,8
2016-05-15T03:38:10.771Z,8.01
2016-05-15T03:39:10.742Z,7.95
2016-05-15T03:40:10.697Z,7.97
2016-05-15T03:41:10.669Z,8
2016-05-15T03:42:10.641Z,7.97
2016-05-15T03:43:10.581Z,7.93
2016-05-15T03:44:10.552Z,7.97
2016-05-15T03:45:10.507Z,7.98
2016-05-15T03:46:10.324Z,8.05
2016-05-15T03:47:10.451Z,7.98
2016-05-15T03:48:10.406Z,7.98
2016-05-15T03:49:10.379Z,8
2016-05-15T03:50:10.350Z,7.97
2016-05-15T03:51:10.306Z,7.95
2016-05-15T03:52:10.261Z,7.93
2016-05-15T03:53:10.077Z,8
2016-05-15T03:54:10.204Z,8.02
2016-05-15T03:55:10.003Z,7.98
2016-05-15T03:56:10.132Z,8
2016-05-15T03:57:10.087Z,7.97
2016-05-15T03:58:09.903Z,7.93
2016-05-15T03:59:10.014Z,7.97
2016-05-15T04:00:09.986Z,8.01
2016-05-15T04:01:09.942Z,7.97
2016-05-15T04:02:09.913Z,8
2016-05-15T04:03:09.713Z,7.98
2016-05-15T04:04:10.528Z,8.04
2016-05-15T04:05:09.797Z,8
2016-05-15T04:06:09.767Z,7.95
2016-05-15T04:07:09.724Z,7.97
2016-05-15T04:08:09.695Z,8.01
2016-05-15T04:09:09.650Z,7.98
2016-05-15T04:10:09.622Z,8
2016-05-15T04:11:09.594Z,8.02
2016-05-15T04:12:09.566Z,7.97
2016-05-15T04:13:09.505Z,7.98
2016-05-15T04:14:09.476Z,7.97
2016-05-15T04:15:09.292Z,8.01
2016-05-15T04:16:09.263Z,8.01
2016-05-15T04:17:09.375Z,7.97
2016-05-15T04:18:09.332Z,8.05
2016-05-15T04:19:09.287Z,8.02
2016-05-15T04:20:09.259Z,7.95
2016-05-15T04:21:09.074Z,8
2016-05-15T04:22:09.202Z,8.07
2016-05-15T04:23:09.157Z,7.98
2016-05-15T04:24:09.112Z,7.98
2016-05-15T04:25:09.085Z,8.04
2016-05-15T04:26:09.040Z,8.04
2016-05-15T04:27:08.856Z,7.98
2016-05-15T04:28:08.967Z,8.08
2016-05-15T04:29:08.939Z,8.1
2016-05-15T04:30:08.895Z,8.05
2016-05-15T04:31:08.881Z,8
2016-05-15T04:32:08.822Z,8.02
2016-05-15T04:33:08.794Z,8.01
2016-05-15T04:34:08.609Z,8.04
2016-05-15T04:35:08.720Z,8.1
2016-05-15T04:36:08.692Z,8.07
2016-05-15T04:37:08.648Z,8.16
2016-05-15T04:38:08.603Z,8.12
2016-05-15T04:39:08.575Z,8.15
2016-05-15T04:40:08.547Z,8.19
2016-05-15T04:41:08.502Z,8.19
2016-05-15T04:42:08.474Z,8.19
2016-05-15T04:43:08.446Z,8.16
2016-05-15T04:44:08.401Z,8.12
2016-05-15T04:45:08.357Z,8.18
2016-05-15T04:46:08.374Z,8.18
2016-05-15T04:47:08.285Z,8.22
2016-05-15T04:48:08.255Z,8.23
2016-05-15T04:49:08.071Z,8.22
2016-05-15T04:50:08.183Z,8.25
2016-05-15T04:51:08.138Z,8.25
2016-05-15T04:52:08.110Z,8.3
2016-05-15T04:53:08.066Z,8.43
2016-05-15T04:54:08.037Z,8.53
2016-05-15T04:55:08.009Z,8.43
2016-05-15T04:56:07.965Z,8.44
2016-05-15T04:57:07.937Z,8.52
2016-05-15T04:58:07.736Z,8.45
2016-05-15T04:59:07.864Z,8.55
2016-05-15T05:00:07.819Z,8.43
2016-05-15T05:01:07.806Z,8.53
2016-05-15T05:02:07.762Z,8.5
2016-05-15T05:03:07.717Z,8.56
2016-05-15T05:04:07.674Z,8.56
2016-05-15T05:05:07.645Z,8.63
2016-05-15T05:06:07.460Z,8.61
2016-05-15T05:07:07.557Z,8.61
2016-05-15T05:08:07.544Z,8.65
2016-05-15T05:09:07.515Z,8.61
2016-05-15T05:10:07.472Z,8.71
2016-05-15T05:11:07.427Z,8.71
2016-05-15T05:12:07.383Z,8.71
2016-05-15T05:13:07.369Z,8.74
2016-05-15T05:14:07.325Z,8.76
2016-05-15T05:15:07.297Z,8.74
2016-05-15T05:16:07.252Z,8.76
2016-05-15T05:17:07.224Z,8.86
2016-05-15T05:18:07.180Z,8.71
2016-05-15T05:19:07.261Z,8.79
2016-05-15T05:20:07.170Z,8.89
2016-05-15T05:21:07.079Z,8.94
2016-05-15T05:22:06.894Z,8.87
2016-05-15T05:23:06.849Z,8.99
2016-05-15T05:24:06.977Z,9.04
2016-05-15T05:25:06.933Z,9.1
2016-05-15T05:26:06.905Z,9.01
2016-05-15T05:27:06.860Z,9.15
2016-05-15T05:28:06.831Z,9.14
2016-05-15T05:29:06.788Z,9.2
2016-05-15T05:30:06.759Z,9.24
2016-05-15T05:31:06.714Z,9.31
2016-05-15T05:32:06.686Z,9.31
2016-05-15T05:33:06.659Z,9.24
2016-05-15T05:34:06.989Z,9.4
2016-05-15T05:35:06.585Z,9.4
2016-05-15T05:36:06.542Z,9.42
2016-05-15T05:37:06.512Z,9.46
2016-05-15T05:38:06.483Z,9.58
2016-05-15T05:39:06.455Z,9.58
2016-05-15T05:40:06.411Z,9.65
2016-05-15T05:41:06.383Z,9.65
2016-05-15T05:42:06.338Z,9.71
2016-05-15T05:43:06.310Z,9.71
2016-05-15T05:44:06.281Z,9.83
2016-05-15T05:45:06.237Z,9.84
2016-05-15T05:46:06.052Z,9.89
2016-05-15T05:47:06.164Z,9.91
2016-05-15T05:48:06.152Z,10.07
2016-05-15T05:49:06.388Z,10.2
2016-05-15T05:50:06.860Z,10.38
2016-05-15T05:51:06.832Z,10.71
2016-05-15T05:52:06.162Z,11.19
2016-05-15T05:53:06.759Z,11.51
2016-05-15T05:54:05.933Z,11.76
2016-05-15T05:55:05.904Z,11.95
2016-05-15T05:56:05.704Z,11.96
2016-05-15T05:57:05.832Z,12.07
2016-05-15T05:58:06.584Z,12.09
2016-05-15T05:59:06.556Z,12.29
2016-05-15T06:00:06.527Z,12.54
2016-05-15T06:01:06.484Z,12.75
2016-05-15T06:02:06.470Z,12.83
2016-05-15T06:03:06.426Z,12.75
2016-05-15T06:04:05.460Z,12.77
2016-05-15T06:05:05.572Z,12.7
2016-05-15T06:06:06.340Z,12.72
2016-05-15T06:07:06.375Z,12.79
2016-05-15T06:08:06.267Z,12.9
2016-05-15T06:09:06.255Z,13.04
2016-05-15T06:10:06.210Z,13.15
2016-05-15T06:11:06.183Z,13.63
2016-05-15T06:12:06.138Z,13.95
2016-05-15T06:13:06.125Z,14.39
2016-05-15T06:14:06.096Z,14.54
2016-05-15T06:15:06.052Z,14.57
2016-05-15T06:16:06.024Z,14.52
2016-05-15T06:17:05.994Z,14.47
2016-05-15T06:18:05.811Z,14.54
2016-05-15T06:19:05.157Z,14.5
2016-05-15T06:20:05.268Z,14.54
2016-05-15T06:21:05.866Z,14.58
2016-05-15T06:22:05.212Z,14.65
2016-05-15T06:23:05.807Z,14.69
2016-05-15T06:24:05.654Z,14.86
2016-05-15T06:25:05.126Z,14.95
2016-05-15T06:26:04.910Z,14.81
2016-05-15T06:27:05.537Z,14.69
2016-05-15T06:28:05.040Z,15.02
2016-05-15T06:29:05.637Z,15.62
2016-05-15T06:30:05.608Z,16.11
2016-05-15T06:31:04.939Z,16.33
2016-05-15T06:32:05.395Z,16.43
2016-05-15T06:33:04.898Z,16.5
2016-05-15T06:34:04.853Z,16.35
2016-05-15T06:35:05.450Z,16.46
2016-05-15T06:36:05.437Z,16.5
2016-05-15T06:37:05.236Z,16.5
2016-05-15T06:38:04.739Z,16.56
2016-05-15T06:39:04.835Z,16.89
2016-05-15T06:40:05.323Z,17.23
2016-05-15T06:41:05.278Z,17.54
2016-05-15T06:42:05.249Z,17.97
2016-05-15T06:43:05.222Z,18.1
2016-05-15T06:44:05.052Z,17.9
2016-05-15T06:45:05.164Z,17.71
2016-05-15T06:46:05.135Z,17.46
2016-05-15T06:47:05.123Z,17.31
2016-05-15T06:48:05.078Z,17.06
2016-05-15T06:49:05.065Z,16.78
2016-05-15T06:50:05.053Z,16.73
2016-05-15T06:51:05.008Z,16.73
2016-05-15T06:52:04.354Z,16.94
2016-05-15T06:53:04.966Z,17.22
2016-05-15T06:54:04.923Z,17.44
2016-05-15T06:55:04.269Z,18.18
2016-05-15T06:56:04.881Z,19.19
2016-05-15T06:57:04.212Z,19.94
2016-05-15T06:58:04.809Z,20.29
2016-05-15T06:59:04.795Z,20.13
2016-05-15T07:00:04.767Z,19.71
2016-05-15T07:01:04.738Z,19.21
2016-05-15T07:02:04.710Z,18.7
2016-05-15T07:03:03.900Z,18.39
2016-05-15T07:04:04.903Z,17.89
2016-05-15T07:05:03.999Z,17.51
2016-05-15T07:06:04.611Z,17.31
2016-05-15T07:07:04.582Z,17.56
2016-05-15T07:08:04.554Z,18.1
2016-05-15T07:09:04.525Z,18.18
2016-05-15T07:10:04.497Z,18.18
2016-05-15T07:11:04.468Z,18.08
2016-05-15T07:12:03.878Z,17.93
2016-05-15T07:13:04.411Z,17.79
2016-05-15T07:14:03.772Z,17.56
2016-05-15T07:15:04.386Z,17.34
2016-05-15T07:16:03.700Z,17.21
2016-05-15T07:17:04.156Z,17.08
2016-05-15T07:18:04.284Z,17.08
2016-05-15T07:19:04.255Z,17.11
2016-05-15T07:20:04.227Z,17.21
2016-05-15T07:21:03.573Z,17.58
2016-05-15T07:22:04.169Z,17.59
2016-05-15T07:23:04.157Z,17.52
2016-05-15T07:24:04.113Z,17.37
2016-05-15T07:25:03.459Z,17.36
2016-05-15T07:26:04.055Z,17.33
2016-05-15T07:27:04.043Z,17.33
2016-05-15T07:28:04.014Z,17.37
2016-05-15T07:29:03.985Z,17.46
2016-05-15T07:30:03.801Z,17.55
2016-05-15T07:31:03.944Z,17.58
2016-05-15T07:32:03.134Z,17.49
2016-05-15T07:33:03.871Z,17.41
2016-05-15T07:34:03.859Z,17.37
2016-05-15T07:35:03.642Z,17.49
2016-05-15T07:36:03.800Z,17.99
2016-05-15T07:37:03.773Z,18.11
2016-05-15T07:38:03.759Z,18.5
2016-05-15T07:39:03.735Z,18.82
2016-05-15T07:40:03.735Z,19.14
2016-05-15T07:41:03.125Z,19.66
2016-05-15T07:42:03.780Z,20.13
2016-05-15T07:43:03.794Z,20.59
2016-05-15T07:44:03.641Z,20.77
2016-05-15T07:45:03.784Z,20.82
2016-05-15T07:46:03.787Z,20.74
2016-05-15T07:47:03.758Z,20.84
2016-05-15T07:48:03.761Z,20.82
2016-05-15T07:49:04.556Z,20.77
2016-05-15T07:50:03.736Z,20.58
2016-05-15T07:51:03.056Z,20.36
2016-05-15T07:52:03.674Z,20.05
2016-05-15T07:53:03.652Z,20.16
2016-05-15T07:54:03.642Z,20.23
2016-05-15T07:55:03.583Z,20.06
2016-05-15T07:56:03.588Z,19.94
2016-05-15T07:57:03.561Z,19.84
2016-05-15T07:58:03.535Z,19.71
2016-05-15T07:59:03.367Z,19.48
2016-05-15T08:00:03.496Z,19.23
2016-05-15T08:01:03.468Z,19.02
2016-05-15T08:02:03.440Z,18.84
2016-05-15T08:03:03.412Z,18.51
2016-05-15T08:04:03.509Z,18.14
2016-05-15T08:05:02.778Z,18.12
2016-05-15T08:06:03.343Z,17.96
2016-05-15T08:07:03.316Z,17.92
2016-05-15T08:08:03.288Z,17.9
2016-05-15T08:09:03.258Z,17.89
2016-05-15T08:10:03.231Z,17.89
2016-05-15T08:11:03.046Z,18.14
2016-05-15T08:12:03.016Z,18.21
2016-05-15T08:13:03.144Z,18.25
2016-05-15T08:14:03.116Z,18.63
2016-05-15T08:15:02.463Z,19
2016-05-15T08:16:02.434Z,19.41
2016-05-15T08:17:02.405Z,19.74
2016-05-15T08:18:02.862Z,19.96
2016-05-15T08:19:03.239Z,20.18
2016-05-15T08:20:02.976Z,20.42
2016-05-15T08:21:02.291Z,20.77
2016-05-15T08:22:02.904Z,20.88
2016-05-15T08:23:02.875Z,21.04
2016-05-15T08:24:02.862Z,20.99
2016-05-15T08:25:02.834Z,21.09
2016-05-15T08:26:02.179Z,20.85
2016-05-15T08:27:02.151Z,20.85
2016-05-15T08:28:02.747Z,20.67
2016-05-15T08:29:02.095Z,20.43
2016-05-15T08:30:02.722Z,20.28
2016-05-15T08:31:02.677Z,19.94
2016-05-15T08:32:02.649Z,19.69
2016-05-15T08:33:02.620Z,19.47
2016-05-15T08:34:01.811Z,19.18
2016-05-15T08:35:02.891Z,19
2016-05-15T08:36:01.926Z,18.82
2016-05-15T08:37:02.522Z,18.94
2016-05-15T08:38:02.493Z,19.88
2016-05-15T08:39:02.481Z,20.61
2016-05-15T08:40:02.436Z,20.87
2016-05-15T08:41:02.266Z,20.99
2016-05-15T08:42:02.394Z,21.09
2016-05-15T08:43:02.366Z,21.31
2016-05-15T08:44:02.197Z,21.14
2016-05-15T08:45:02.324Z,20.95
2016-05-15T08:46:02.296Z,20.7
2016-05-15T08:47:02.315Z,20.29
2016-05-15T08:48:02.254Z,20.06
2016-05-15T08:49:02.210Z,19.84
2016-05-15T08:50:01.666Z,19.59
2016-05-15T08:51:01.544Z,19.41
2016-05-15T08:52:02.140Z,19.14
2016-05-15T08:53:02.112Z,18.98
2016-05-15T08:54:01.926Z,18.72
2016-05-15T08:55:02.070Z,18.52
2016-05-15T08:56:01.401Z,18.33
2016-05-15T08:57:01.998Z,18.23
2016-05-15T08:58:01.969Z,18.1
2016-05-15T08:59:01.956Z,17.96
2016-05-15T09:00:01.928Z,17.84
2016-05-15T09:01:01.742Z,17.54
2016-05-15T09:02:01.870Z,17.34
2016-05-15T09:03:01.858Z,17.16
2016-05-15T09:04:01.813Z,17
2016-05-15T09:05:01.879Z,16.83
2016-05-15T09:06:01.147Z,16.7
2016-05-15T09:07:01.727Z,16.56
2016-05-15T09:08:01.074Z,16.57
2016-05-15T09:09:01.669Z,16.96
2016-05-15T09:10:01.657Z,18.7
2016-05-15T09:11:02.473Z,21.01
2016-05-15T09:12:01.600Z,23.05
2016-05-15T09:13:01.555Z,25.08
2016-05-15T09:14:01.544Z,26.82
2016-05-15T09:15:01.530Z,28.15
2016-05-15T09:16:00.704Z,28.66
2016-05-15T09:17:01.473Z,28.11
2016-05-15T09:18:01.461Z,27.27
2016-05-15T09:19:01.432Z,26.58
2016-05-15T09:20:04.762Z,26.75
2016-05-15T09:21:06.484Z,26.57
2016-05-15T09:22:00.751Z,26.6
2016-05-15T09:23:00.740Z,26.7
2016-05-15T09:24:01.320Z,26.51
2016-05-15T09:25:01.292Z,26.29
2016-05-15T09:26:01.123Z,25.69
2016-05-15T09:27:01.234Z,24.99
2016-05-15T09:28:00.596Z,24.42
2016-05-15T09:29:01.209Z,23.83
2016-05-15T09:30:01.164Z,23.27
2016-05-15T09:31:00.526Z,22.7
2016-05-15T09:32:00.498Z,22.12
2016-05-15T09:33:01.109Z,21.98
2016-05-15T09:34:01.097Z,22.86
2016-05-15T09:35:01.694Z,23.79
2016-05-15T09:36:00.414Z,25.18
2016-05-15T09:37:00.386Z,26.54
2016-05-15T09:38:00.998Z,27.66
2016-05-15T09:39:00.986Z,27.67
2016-05-15T09:40:00.332Z,27.1
2016-05-15T09:41:00.303Z,26.4
2016-05-15T09:42:00.916Z,25.61
2016-05-15T09:43:00.886Z,25.03
2016-05-15T09:44:00.702Z,25.25
2016-05-15T09:45:00.845Z,25.1
2016-05-15T09:46:00.817Z,24.88
2016-05-15T09:47:00.179Z,24.98
2016-05-15T09:48:00.150Z,25.08
2016-05-15T09:49:00.746Z,24.69
2016-05-15T09:50:01.030Z,24.34
2016-05-15T09:51:00.705Z,24.22
2016-05-15T09:52:00.693Z,24.69
2016-05-15T09:53:00.679Z,24.87
2016-05-15T09:54:00.651Z,24.47
2016-05-15T09:55:00.637Z,24.34
2016-05-15T09:56:00.609Z,24.21
2016-05-15T09:57:00.565Z,23.87
2016-05-15T09:58:00.551Z,23.84
2016-05-15T09:59:00.524Z,24.39
2016-05-15T10:00:00.526Z,24.69
2016-05-15T10:01:00.326Z,25.3
2016-05-15T10:02:00.469Z,25.83
2016-05-15T10:03:00.456Z,26.36
2016-05-15T10:04:00.272Z,26.01
2016-05-15T10:04:59.617Z,25.45
2016-05-15T10:05:59.745Z,24.98
2016-05-15T10:07:00.358Z,24.4
2016-05-15T10:08:00.329Z,24
2016-05-15T10:09:00.331Z,23.75
2016-05-15T10:10:00.287Z,23.28
2016-05-15T10:11:00.274Z,22.86
2016-05-15T10:12:00.090Z,22.57
2016-05-15T10:13:00.217Z,22.3
2016-05-15T10:14:00.188Z,22.03
2016-05-15T10:15:00.177Z,21.68
2016-05-15T10:16:00.147Z,21.34
2016-05-15T10:17:00.119Z,21.13
2016-05-15T10:18:00.105Z,20.98
2016-05-15T10:18:59.938Z,21.43
2016-05-15T10:19:59.283Z,22.73
2016-05-15T10:21:00.036Z,23.78
2016-05-15T10:22:00.023Z,23.97
2016-05-15T10:22:59.993Z,24.13
2016-05-15T10:23:59.966Z,24.35
2016-05-15T10:24:59.781Z,25.1
2016-05-15T10:25:59.924Z,25.28
2016-05-15T10:26:59.723Z,25.1
2016-05-15T10:27:59.929Z,25.2
2016-05-15T10:28:59.964Z,25.92
2016-05-15T10:29:59.842Z,26.7
2016-05-15T10:31:00.000Z,27.28
2016-05-15T10:31:59.862Z,27.97
2016-05-15T10:32:59.756Z,28.36
2016-05-15T10:33:59.103Z,28.67
2016-05-15T10:35:00.026Z,29.55
2016-05-15T10:35:59.075Z,30.72
2016-05-15T10:36:59.673Z,31.32
2016-05-15T10:37:59.660Z,31.14
2016-05-15T10:38:59.631Z,31.07
2016-05-15T10:39:59.461Z,30.69
2016-05-15T10:40:59.590Z,29.9
2016-05-15T10:41:59.577Z,29.11
2016-05-15T10:42:59.877Z,28.36
2016-05-15T10:43:59.550Z,27.6
2016-05-15T10:44:59.507Z,27.18
2016-05-15T10:45:59.494Z,27.85
2016-05-15T10:46:59.497Z,28.25
2016-05-15T10:47:59.483Z,28.54
2016-05-15T10:48:59.471Z,28.96
2016-05-15T10:49:59.910Z,29.43
2016-05-15T10:50:59.024Z,29.45
2016-05-15T10:51:58.760Z,29.06
2016-05-15T10:52:58.731Z,28.93
2016-05-15T10:53:59.468Z,28.95
2016-05-15T10:54:59.329Z,28.95
2016-05-15T10:55:59.333Z,28.36
2016-05-15T10:56:59.304Z,27.77
2016-05-15T10:57:58.901Z,27.31
2016-05-15T10:58:59.262Z,26.94
2016-05-15T10:59:59.235Z,26.57
2016-05-15T11:00:58.581Z,26.12
2016-05-15T11:01:59.193Z,25.87
2016-05-15T11:02:59.008Z,25.54
2016-05-15T11:03:59.152Z,25.13
2016-05-15T11:04:58.981Z,24.5
2016-05-15T11:05:59.110Z,24.15
2016-05-15T11:06:58.925Z,23.79
2016-05-15T11:07:59.053Z,23.27
2016-05-15T11:08:59.039Z,23.1
2016-05-15T11:09:59.059Z,23.05
2016-05-15T11:10:58.998Z,22.95
2016-05-15T11:11:58.970Z,22.85
2016-05-15T11:12:58.957Z,22.64
2016-05-15T11:13:58.928Z,22.3
2016-05-15T11:14:58.899Z,22.06
2016-05-15T11:15:58.934Z,21.86
2016-05-15T11:16:58.858Z,21.65
2016-05-15T11:17:58.830Z,21.59
2016-05-15T11:18:58.816Z,21.27
2016-05-15T11:19:58.163Z,21.1
2016-05-15T11:20:58.760Z,20.88
2016-05-15T11:21:58.121Z,20.92
2016-05-15T11:22:58.734Z,20.77
2016-05-15T11:24:16.612Z,20.73
2016-05-15T11:24:58.723Z,20.57
2016-05-15T11:25:58.632Z,20.47
2016-05-15T11:26:59.901Z,20.24
2016-05-15T11:27:57.809Z,20.17
2016-05-15T11:28:58.562Z,19.98
2016-05-15T11:29:58.534Z,19.95
2016-05-15T11:30:57.881Z,19.87
2016-05-15T11:31:57.851Z,19.94
2016-05-15T11:32:58.464Z,19.94
2016-05-15T11:33:58.467Z,19.84
2016-05-15T11:34:58.892Z,19.86
2016-05-15T11:35:58.378Z,19.66
2016-05-15T11:36:58.350Z,19.58
2016-05-15T11:37:57.695Z,19.54
2016-05-15T11:38:58.292Z,19.47
2016-05-15T11:39:58.280Z,19.31
2016-05-15T11:40:58.095Z,19.1
2016-05-15T11:41:57.597Z,18.98
2016-05-15T11:42:58.303Z,18.92
2016-05-15T11:43:58.165Z,18.84
2016-05-15T11:44:57.981Z,18.63
2016-05-15T11:45:57.952Z,18.7
2016-05-15T11:46:57.924Z,18.78
2016-05-15T11:47:58.082Z,18.7
2016-05-15T11:48:58.038Z,18.9
2016-05-15T11:49:58.009Z,19.06
2016-05-15T11:50:57.981Z,19.07
2016-05-15T11:51:57.952Z,19.14
2016-05-15T11:52:57.924Z,19.32
2016-05-15T11:53:57.910Z,19.46
2016-05-15T11:54:57.866Z,19.65
2016-05-15T11:55:57.947Z,19.78
2016-05-15T11:56:57.826Z,19.77
2016-05-15T11:57:57.829Z,19.74
2016-05-15T11:58:57.752Z,19.66
2016-05-15T11:59:57.739Z,19.61
2016-05-15T12:00:57.711Z,19.48
2016-05-15T12:01:57.089Z,19.54
2016-05-15T12:02:57.654Z,19.41
2016-05-15T12:03:57.626Z,19.32
2016-05-15T12:04:58.143Z,19.16
2016-05-15T12:05:57.568Z,19.11
2016-05-15T12:06:57.383Z,19.04
2016-05-15T12:07:57.511Z,19.06
2016-05-15T12:08:57.483Z,19.02
2016-05-15T12:09:57.454Z,19.16
2016-05-15T12:10:57.425Z,19.21
2016-05-15T12:11:57.397Z,19.1
2016-05-15T12:12:57.384Z,19.06
2016-05-15T12:13:57.340Z,19.06
2016-05-15T12:14:57.311Z,18.98
2016-05-15T12:15:57.127Z,18.98
2016-05-15T12:16:57.269Z,18.98
2016-05-15T12:17:57.085Z,18.84
2016-05-15T12:18:57.212Z,18.78
2016-05-15T12:19:57.183Z,18.67
2016-05-15T12:20:57.172Z,18.7
2016-05-15T12:21:57.127Z,18.7
2016-05-15T12:22:57.130Z,18.73
2016-05-15T12:23:57.069Z,18.84
2016-05-15T12:24:57.041Z,18.82
2016-05-15T12:25:56.403Z,18.75
2016-05-15T12:26:56.985Z,18.72
2016-05-15T12:27:56.799Z,18.78
2016-05-15T12:28:56.927Z,18.62
2016-05-15T12:29:56.898Z,18.65
2016-05-15T12:30:56.885Z,18.58
2016-05-15T12:31:56.857Z,18.55
2016-05-15T12:32:56.829Z,18.55
2016-05-15T12:33:56.628Z,18.42
2016-05-15T12:34:56.912Z,18.39
2016-05-15T12:35:56.726Z,18.33
2016-05-15T12:36:56.714Z,18.32
2016-05-15T12:37:56.061Z,18.29
2016-05-15T12:38:56.657Z,18.26
2016-05-15T12:39:56.629Z,18.21
2016-05-15T12:40:56.600Z,18.21
2016-05-15T12:41:56.572Z,18.35
2016-05-15T12:42:56.386Z,18.41
2016-05-15T12:43:55.983Z,18.67
2016-05-15T12:44:56.500Z,18.73
2016-05-15T12:45:56.473Z,18.95
2016-05-15T12:46:56.428Z,18.95
2016-05-15T12:47:56.400Z,19.04
2016-05-15T12:48:55.747Z,18.99
2016-05-15T12:49:56.686Z,18.9
2016-05-15T12:50:56.330Z,18.78
2016-05-15T12:51:55.519Z,18.78
2016-05-15T12:52:55.476Z,18.75
2016-05-15T12:53:55.275Z,18.73
2016-05-15T12:54:55.403Z,18.5
2016-05-15T12:55:55.374Z,18.45
2016-05-15T12:56:55.346Z,18.36
2016-05-15T12:57:55.318Z,18.36
2016-05-15T12:58:55.289Z,18.29
2016-05-15T12:59:55.260Z,18.27
2016-05-15T13:00:55.232Z,18.42
2016-05-15T13:01:55.218Z,18.44
2016-05-15T13:02:55.190Z,18.52
2016-05-15T13:03:55.145Z,18.55
2016-05-15T13:04:55.790Z,18.62
2016-05-15T13:05:55.901Z,18.66
2016-05-15T13:06:55.857Z,18.78
2016-05-15T13:07:55.828Z,18.88